sensor_id;sensor_type;location;lat;lon;timestamp;P1;durP1;ratioP1;P2;durP2;ratioP2
21245;SDS011;10781;50.928;4.440;2023-10-31T00:02:10;29.52;;;17.77;;
21245;SDS011;10781;50.928;4.440;2023-10-31T00:04:36;32.38;;;18.35;;
21245;SDS011;10781;50.928;4.440;2023-10-31T00:07:02;27.90;;;17.35;;
21245;SDS011;10781;50.928;4.440;2023-10-31T00:09:28;30.35;;;18.40;;
21245;SDS011;10781;50.928;4.440;2023-10-31T00:11:54;29.95;;;17.58;;
21245;SDS011;10781;50.928;4.440;2023-10-31T00:14:20;26.95;;;17.13;;
21245;SDS011;10781;50.928;4.440;2023-10-31T00:16:45;27.52;;;15.82;;
21245;SDS011;10781;50.928;4.440;2023-10-31T00:19:13;30.45;;;16.48;;
21245;SDS011;10781;50.928;4.440;2023-10-31T00:21:39;26.83;;;16.20;;
21245;SDS011;10781;50.928;4.440;2023-10-31T00:24:05;24.45;;;15.27;;
21245;SDS011;10781;50.928;4.440;2023-10-31T00:26:31;27.23;;;14.75;;
21245;SDS011;10781;50.928;4.440;2023-10-31T00:28:56;22.60;;;14.35;;
21245;SDS011;10781;50.928;4.440;2023-10-31T00:31:22;24.13;;;14.07;;
21245;SDS011;10781;50.928;4.440;2023-10-31T00:33:47;20.65;;;13.38;;
21245;SDS011;10781;50.928;4.440;2023-10-31T00:36:13;20.42;;;12.88;;
21245;SDS011;10781;50.928;4.440;2023-10-31T00:38:39;19.80;;;11.68;;
21245;SDS011;10781;50.928;4.440;2023-10-31T00:41:05;16.48;;;11.15;;
21245;SDS011;10781;50.928;4.440;2023-10-31T00:43:30;15.88;;;10.95;;
21245;SDS011;10781;50.928;4.440;2023-10-31T00:45:56;17.38;;;10.32;;
21245;SDS011;10781;50.928;4.440;2023-10-31T00:48:21;19.08;;;11.07;;
21245;SDS011;10781;50.928;4.440;2023-10-31T00:50:47;17.27;;;9.35;;
21245;SDS011;10781;50.928;4.440;2023-10-31T00:53:13;13.60;;;9.90;;
21245;SDS011;10781;50.928;4.440;2023-10-31T00:55:39;15.90;;;10.18;;
21245;SDS011;10781;50.928;4.440;2023-10-31T00:58:05;14.43;;;9.40;;
21245;SDS011;10781;50.928;4.440;2023-10-31T01:00:31;15.07;;;9.50;;
21245;SDS011;10781;50.928;4.440;2023-10-31T01:02:57;13.43;;;9.32;;
21245;SDS011;10781;50.928;4.440;2023-10-31T01:05:22;15.40;;;8.85;;
21245;SDS011;10781;50.928;4.440;2023-10-31T01:07:48;14.85;;;9.25;;
21245;SDS011;10781;50.928;4.440;2023-10-31T01:10:13;14.98;;;9.25;;
21245;SDS011;10781;50.928;4.440;2023-10-31T01:12:39;12.25;;;8.90;;
21245;SDS011;10781;50.928;4.440;2023-10-31T01:15:05;15.85;;;9.20;;
21245;SDS011;10781;50.928;4.440;2023-10-31T01:17:32;13.73;;;7.75;;
21245;SDS011;10781;50.928;4.440;2023-10-31T01:19:57;13.55;;;9.05;;
21245;SDS011;10781;50.928;4.440;2023-10-31T01:22:23;13.63;;;8.75;;
21245;SDS011;10781;50.928;4.440;2023-10-31T01:24:49;11.40;;;8.93;;
21245;SDS011;10781;50.928;4.440;2023-10-31T01:27:14;10.38;;;8.20;;
21245;SDS011;10781;50.928;4.440;2023-10-31T01:29:40;12.25;;;8.18;;
21245;SDS011;10781;50.928;4.440;2023-10-31T01:32:05;11.15;;;8.05;;
21245;SDS011;10781;50.928;4.440;2023-10-31T01:34:31;12.88;;;8.50;;
21245;SDS011;10781;50.928;4.440;2023-10-31T01:36:57;12.05;;;8.15;;
21245;SDS011;10781;50.928;4.440;2023-10-31T01:39:23;11.63;;;8.43;;
21245;SDS011;10781;50.928;4.440;2023-10-31T01:41:48;12.20;;;8.25;;
21245;SDS011;10781;50.928;4.440;2023-10-31T01:44:14;11.65;;;7.88;;
21245;SDS011;10781;50.928;4.440;2023-10-31T01:46:40;11.98;;;8.32;;
21245;SDS011;10781;50.928;4.440;2023-10-31T01:49:06;11.38;;;8.32;;
21245;SDS011;10781;50.928;4.440;2023-10-31T01:51:31;12.82;;;7.80;;
21245;SDS011;10781;50.928;4.440;2023-10-31T01:53:57;12.63;;;8.00;;
21245;SDS011;10781;50.928;4.440;2023-10-31T01:56:23;12.15;;;8.60;;
21245;SDS011;10781;50.928;4.440;2023-10-31T01:58:50;11.07;;;7.93;;
21245;SDS011;10781;50.928;4.440;2023-10-31T02:01:17;12.45;;;8.77;;
21245;SDS011;10781;50.928;4.440;2023-10-31T02:03:43;13.70;;;8.38;;
21245;SDS011;10781;50.928;4.440;2023-10-31T02:06:09;11.80;;;8.63;;
21245;SDS011;10781;50.928;4.440;2023-10-31T02:08:35;12.82;;;9.30;;
21245;SDS011;10781;50.928;4.440;2023-10-31T02:11:00;12.57;;;9.10;;
21245;SDS011;10781;50.928;4.440;2023-10-31T02:13:26;12.02;;;8.57;;
21245;SDS011;10781;50.928;4.440;2023-10-31T02:15:52;14.88;;;9.27;;
21245;SDS011;10781;50.928;4.440;2023-10-31T02:18:18;13.98;;;9.02;;
21245;SDS011;10781;50.928;4.440;2023-10-31T02:20:43;13.73;;;8.75;;
21245;SDS011;10781;50.928;4.440;2023-10-31T02:23:09;12.15;;;8.55;;
21245;SDS011;10781;50.928;4.440;2023-10-31T02:25:35;13.07;;;8.85;;
21245;SDS011;10781;50.928;4.440;2023-10-31T02:28:00;12.43;;;8.95;;
21245;SDS011;10781;50.928;4.440;2023-10-31T02:30:26;16.90;;;9.10;;
21245;SDS011;10781;50.928;4.440;2023-10-31T02:32:52;12.77;;;9.07;;
21245;SDS011;10781;50.928;4.440;2023-10-31T02:35:18;11.63;;;7.97;;
21245;SDS011;10781;50.928;4.440;2023-10-31T02:37:45;11.55;;;8.30;;
21245;SDS011;10781;50.928;4.440;2023-10-31T02:40:14;13.68;;;8.75;;
21245;SDS011;10781;50.928;4.440;2023-10-31T02:42:40;13.80;;;9.07;;
21245;SDS011;10781;50.928;4.440;2023-10-31T02:45:06;12.93;;;9.00;;
21245;SDS011;10781;50.928;4.440;2023-10-31T02:47:32;15.82;;;9.48;;
21245;SDS011;10781;50.928;4.440;2023-10-31T02:49:57;13.18;;;9.95;;
21245;SDS011;10781;50.928;4.440;2023-10-31T02:52:23;14.18;;;9.93;;
21245;SDS011;10781;50.928;4.440;2023-10-31T02:54:49;13.98;;;9.00;;
21245;SDS011;10781;50.928;4.440;2023-10-31T02:57:15;15.90;;;9.60;;
21245;SDS011;10781;50.928;4.440;2023-10-31T02:59:41;12.82;;;9.57;;
21245;SDS011;10781;50.928;4.440;2023-10-31T03:02:07;13.15;;;9.80;;
21245;SDS011;10781;50.928;4.440;2023-10-31T03:04:32;13.93;;;9.43;;
21245;SDS011;10781;50.928;4.440;2023-10-31T03:06:58;11.95;;;9.00;;
21245;SDS011;10781;50.928;4.440;2023-10-31T03:09:24;12.02;;;8.68;;
21245;SDS011;10781;50.928;4.440;2023-10-31T03:11:49;13.10;;;8.85;;
21245;SDS011;10781;50.928;4.440;2023-10-31T03:14:15;13.55;;;8.23;;
21245;SDS011;10781;50.928;4.440;2023-10-31T03:16:41;12.98;;;8.30;;
21245;SDS011;10781;50.928;4.440;2023-10-31T03:19:06;12.98;;;9.13;;
21245;SDS011;10781;50.928;4.440;2023-10-31T03:21:32;12.60;;;8.98;;
21245;SDS011;10781;50.928;4.440;2023-10-31T03:23:58;13.10;;;9.30;;
21245;SDS011;10781;50.928;4.440;2023-10-31T03:26:24;13.68;;;9.27;;
21245;SDS011;10781;50.928;4.440;2023-10-31T03:28:53;15.00;;;9.18;;
21245;SDS011;10781;50.928;4.440;2023-10-31T03:31:22;12.80;;;8.27;;
21245;SDS011;10781;50.928;4.440;2023-10-31T03:33:51;12.48;;;9.13;;
21245;SDS011;10781;50.928;4.440;2023-10-31T03:36:17;12.73;;;9.50;;
21245;SDS011;10781;50.928;4.440;2023-10-31T03:38:43;10.70;;;8.52;;
21245;SDS011;10781;50.928;4.440;2023-10-31T03:41:08;11.45;;;9.05;;
21245;SDS011;10781;50.928;4.440;2023-10-31T03:43:35;12.40;;;9.00;;
21245;SDS011;10781;50.928;4.440;2023-10-31T03:46:01;14.20;;;9.50;;
21245;SDS011;10781;50.928;4.440;2023-10-31T03:48:27;12.02;;;8.63;;
21245;SDS011;10781;50.928;4.440;2023-10-31T03:50:53;10.90;;;8.73;;
21245;SDS011;10781;50.928;4.440;2023-10-31T03:53:18;13.13;;;9.40;;
21245;SDS011;10781;50.928;4.440;2023-10-31T03:55:44;13.88;;;9.60;;
21245;SDS011;10781;50.928;4.440;2023-10-31T03:58:09;12.50;;;8.90;;
21245;SDS011;10781;50.928;4.440;2023-10-31T04:00:36;10.18;;;7.85;;
21245;SDS011;10781;50.928;4.440;2023-10-31T04:03:01;12.07;;;9.00;;
21245;SDS011;10781;50.928;4.440;2023-10-31T04:05:27;15.57;;;8.75;;
21245;SDS011;10781;50.928;4.440;2023-10-31T04:07:53;12.07;;;8.90;;
21245;SDS011;10781;50.928;4.440;2023-10-31T04:10:19;11.95;;;8.43;;
21245;SDS011;10781;50.928;4.440;2023-10-31T04:12:45;9.40;;;7.80;;
21245;SDS011;10781;50.928;4.440;2023-10-31T04:15:13;11.85;;;8.70;;
21245;SDS011;10781;50.928;4.440;2023-10-31T04:17:39;10.73;;;8.45;;
21245;SDS011;10781;50.928;4.440;2023-10-31T04:20:05;13.02;;;8.70;;
21245;SDS011;10781;50.928;4.440;2023-10-31T04:22:31;14.85;;;9.77;;
21245;SDS011;10781;50.928;4.440;2023-10-31T04:24:57;13.90;;;10.38;;
21245;SDS011;10781;50.928;4.440;2023-10-31T04:27:22;19.00;;;10.73;;
21245;SDS011;10781;50.928;4.440;2023-10-31T04:29:48;18.00;;;11.30;;
21245;SDS011;10781;50.928;4.440;2023-10-31T04:32:14;19.17;;;11.88;;
21245;SDS011;10781;50.928;4.440;2023-10-31T04:34:39;18.60;;;11.88;;
21245;SDS011;10781;50.928;4.440;2023-10-31T04:37:05;14.32;;;11.18;;
21245;SDS011;10781;50.928;4.440;2023-10-31T04:39:31;17.23;;;11.95;;
21245;SDS011;10781;50.928;4.440;2023-10-31T04:41:57;19.05;;;11.82;;
21245;SDS011;10781;50.928;4.440;2023-10-31T04:44:25;19.40;;;12.48;;
21245;SDS011;10781;50.928;4.440;2023-10-31T04:46:51;19.00;;;12.70;;
21245;SDS011;10781;50.928;4.440;2023-10-31T04:49:16;18.80;;;12.32;;
21245;SDS011;10781;50.928;4.440;2023-10-31T04:51:42;17.85;;;12.98;;
21245;SDS011;10781;50.928;4.440;2023-10-31T04:54:08;21.02;;;13.07;;
21245;SDS011;10781;50.928;4.440;2023-10-31T04:56:34;18.48;;;12.38;;
21245;SDS011;10781;50.928;4.440;2023-10-31T04:59:00;21.20;;;12.80;;
21245;SDS011;10781;50.928;4.440;2023-10-31T05:01:25;20.20;;;13.25;;
21245;SDS011;10781;50.928;4.440;2023-10-31T05:03:51;21.92;;;13.90;;
21245;SDS011;10781;50.928;4.440;2023-10-31T05:06:20;18.17;;;12.48;;
21245;SDS011;10781;50.928;4.440;2023-10-31T05:08:46;22.92;;;12.80;;
21245;SDS011;10781;50.928;4.440;2023-10-31T05:11:12;20.60;;;12.68;;
21245;SDS011;10781;50.928;4.440;2023-10-31T05:13:38;19.73;;;12.02;;
21245;SDS011;10781;50.928;4.440;2023-10-31T05:16:04;21.27;;;12.70;;
21245;SDS011;10781;50.928;4.440;2023-10-31T05:18:30;17.75;;;12.45;;
21245;SDS011;10781;50.928;4.440;2023-10-31T05:20:56;23.27;;;12.52;;
21245;SDS011;10781;50.928;4.440;2023-10-31T05:23:22;20.58;;;12.63;;
21245;SDS011;10781;50.928;4.440;2023-10-31T05:25:47;19.73;;;13.38;;
21245;SDS011;10781;50.928;4.440;2023-10-31T05:28:13;21.95;;;13.23;;
21245;SDS011;10781;50.928;4.440;2023-10-31T05:30:38;20.90;;;13.20;;
21245;SDS011;10781;50.928;4.440;2023-10-31T05:33:04;18.83;;;12.40;;
21245;SDS011;10781;50.928;4.440;2023-10-31T05:35:30;21.85;;;13.68;;
21245;SDS011;10781;50.928;4.440;2023-10-31T05:37:56;19.10;;;12.75;;
21245;SDS011;10781;50.928;4.440;2023-10-31T05:40:21;23.60;;;14.25;;
21245;SDS011;10781;50.928;4.440;2023-10-31T05:42:49;19.50;;;12.77;;
21245;SDS011;10781;50.928;4.440;2023-10-31T05:45:15;20.25;;;13.70;;
21245;SDS011;10781;50.928;4.440;2023-10-31T05:47:41;21.65;;;13.98;;
21245;SDS011;10781;50.928;4.440;2023-10-31T05:50:07;21.17;;;13.20;;
21245;SDS011;10781;50.928;4.440;2023-10-31T05:52:33;18.42;;;12.50;;
21245;SDS011;10781;50.928;4.440;2023-10-31T05:54:59;18.13;;;12.45;;
21245;SDS011;10781;50.928;4.440;2023-10-31T05:57:25;18.55;;;12.95;;
21245;SDS011;10781;50.928;4.440;2023-10-31T05:59:50;18.50;;;13.02;;
21245;SDS011;10781;50.928;4.440;2023-10-31T06:02:16;21.48;;;12.60;;
21245;SDS011;10781;50.928;4.440;2023-10-31T06:04:41;19.05;;;12.18;;
21245;SDS011;10781;50.928;4.440;2023-10-31T06:07:07;17.77;;;12.23;;
21245;SDS011;10781;50.928;4.440;2023-10-31T06:09:33;17.42;;;11.85;;
21245;SDS011;10781;50.928;4.440;2023-10-31T06:12:02;18.55;;;12.90;;
21245;SDS011;10781;50.928;4.440;2023-10-31T06:14:27;18.83;;;13.35;;
21245;SDS011;10781;50.928;4.440;2023-10-31T06:16:53;18.95;;;12.35;;
21245;SDS011;10781;50.928;4.440;2023-10-31T06:19:19;19.48;;;12.23;;
21245;SDS011;10781;50.928;4.440;2023-10-31T06:21:45;19.45;;;13.13;;
21245;SDS011;10781;50.928;4.440;2023-10-31T06:24:11;21.40;;;12.93;;
21245;SDS011;10781;50.928;4.440;2023-10-31T06:26:37;18.10;;;12.68;;
21245;SDS011;10781;50.928;4.440;2023-10-31T06:29:04;18.80;;;12.80;;
21245;SDS011;10781;50.928;4.440;2023-10-31T06:31:30;21.20;;;13.10;;
21245;SDS011;10781;50.928;4.440;2023-10-31T06:33:55;20.25;;;12.68;;
21245;SDS011;10781;50.928;4.440;2023-10-31T06:36:21;22.88;;;12.85;;
21245;SDS011;10781;50.928;4.440;2023-10-31T06:38:47;21.42;;;12.90;;
21245;SDS011;10781;50.928;4.440;2023-10-31T06:41:12;18.45;;;12.65;;
21245;SDS011;10781;50.928;4.440;2023-10-31T06:43:38;22.20;;;12.57;;
21245;SDS011;10781;50.928;4.440;2023-10-31T06:46:04;22.20;;;13.10;;
21245;SDS011;10781;50.928;4.440;2023-10-31T06:48:30;20.77;;;12.88;;
21245;SDS011;10781;50.928;4.440;2023-10-31T06:50:55;21.23;;;11.70;;
21245;SDS011;10781;50.928;4.440;2023-10-31T06:53:21;17.15;;;12.63;;
21245;SDS011;10781;50.928;4.440;2023-10-31T06:55:47;17.58;;;12.18;;
21245;SDS011;10781;50.928;4.440;2023-10-31T06:58:13;18.88;;;11.32;;
21245;SDS011;10781;50.928;4.440;2023-10-31T07:00:42;18.25;;;11.57;;
21245;SDS011;10781;50.928;4.440;2023-10-31T07:03:07;20.38;;;12.38;;
21245;SDS011;10781;50.928;4.440;2023-10-31T07:05:37;16.80;;;11.45;;
21245;SDS011;10781;50.928;4.440;2023-10-31T07:08:03;19.15;;;12.93;;
21245;SDS011;10781;50.928;4.440;2023-10-31T07:10:30;18.73;;;11.35;;
21245;SDS011;10781;50.928;4.440;2023-10-31T07:12:55;15.63;;;10.52;;
21245;SDS011;10781;50.928;4.440;2023-10-31T07:15:23;17.13;;;10.63;;
21245;SDS011;10781;50.928;4.440;2023-10-31T07:17:49;15.02;;;10.50;;
21245;SDS011;10781;50.928;4.440;2023-10-31T07:20:15;12.55;;;9.50;;
21245;SDS011;10781;50.928;4.440;2023-10-31T07:22:41;15.02;;;10.40;;
21245;SDS011;10781;50.928;4.440;2023-10-31T07:25:07;16.05;;;10.40;;
21245;SDS011;10781;50.928;4.440;2023-10-31T07:27:33;14.55;;;9.80;;
21245;SDS011;10781;50.928;4.440;2023-10-31T07:29:59;13.48;;;9.68;;
21245;SDS011;10781;50.928;4.440;2023-10-31T07:32:24;14.40;;;9.93;;
21245;SDS011;10781;50.928;4.440;2023-10-31T07:34:50;13.93;;;9.00;;
21245;SDS011;10781;50.928;4.440;2023-10-31T07:37:17;15.10;;;9.50;;
21245;SDS011;10781;50.928;4.440;2023-10-31T07:39:43;12.82;;;9.07;;
21245;SDS011;10781;50.928;4.440;2023-10-31T07:42:09;15.07;;;9.68;;
21245;SDS011;10781;50.928;4.440;2023-10-31T07:44:34;12.90;;;8.73;;
21245;SDS011;10781;50.928;4.440;2023-10-31T07:47:00;12.50;;;8.27;;
21245;SDS011;10781;50.928;4.440;2023-10-31T07:49:26;12.05;;;8.10;;
21245;SDS011;10781;50.928;4.440;2023-10-31T07:51:52;13.63;;;7.93;;
21245;SDS011;10781;50.928;4.440;2023-10-31T07:54:17;11.38;;;8.18;;
21245;SDS011;10781;50.928;4.440;2023-10-31T07:56:44;11.95;;;7.35;;
21245;SDS011;10781;50.928;4.440;2023-10-31T07:59:10;14.68;;;7.60;;
21245;SDS011;10781;50.928;4.440;2023-10-31T08:01:36;9.52;;;7.40;;
21245;SDS011;10781;50.928;4.440;2023-10-31T08:04:02;8.63;;;7.40;;
21245;SDS011;10781;50.928;4.440;2023-10-31T08:06:28;8.48;;;7.35;;
21245;SDS011;10781;50.928;4.440;2023-10-31T08:08:53;10.23;;;7.35;;
21245;SDS011;10781;50.928;4.440;2023-10-31T08:11:19;12.18;;;6.53;;
21245;SDS011;10781;50.928;4.440;2023-10-31T08:13:45;8.82;;;6.80;;
21245;SDS011;10781;50.928;4.440;2023-10-31T08:16:18;7.88;;;5.90;;
21245;SDS011;10781;50.928;4.440;2023-10-31T08:18:48;8.18;;;5.68;;
21245;SDS011;10781;50.928;4.440;2023-10-31T08:21:13;9.07;;;6.22;;
21245;SDS011;10781;50.928;4.440;2023-10-31T08:23:39;10.80;;;6.10;;
21245;SDS011;10781;50.928;4.440;2023-10-31T08:26:07;9.10;;;6.00;;
21245;SDS011;10781;50.928;4.440;2023-10-31T08:28:33;8.57;;;6.18;;
21245;SDS011;10781;50.928;4.440;2023-10-31T08:30:59;8.43;;;5.95;;
21245;SDS011;10781;50.928;4.440;2023-10-31T08:33:24;6.50;;;5.40;;
21245;SDS011;10781;50.928;4.440;2023-10-31T08:35:50;9.35;;;5.13;;
21245;SDS011;10781;50.928;4.440;2023-10-31T08:38:17;8.20;;;6.07;;
21245;SDS011;10781;50.928;4.440;2023-10-31T08:40:42;10.00;;;5.40;;
21245;SDS011;10781;50.928;4.440;2023-10-31T08:43:08;6.22;;;5.38;;
21245;SDS011;10781;50.928;4.440;2023-10-31T08:45:34;9.65;;;4.85;;
21245;SDS011;10781;50.928;4.440;2023-10-31T08:48:00;9.25;;;5.70;;
21245;SDS011;10781;50.928;4.440;2023-10-31T08:50:26;5.70;;;4.70;;
21245;SDS011;10781;50.928;4.440;2023-10-31T08:52:51;6.72;;;4.50;;
21245;SDS011;10781;50.928;4.440;2023-10-31T08:55:18;8.48;;;4.40;;
21245;SDS011;10781;50.928;4.440;2023-10-31T08:57:43;7.03;;;4.30;;
21245;SDS011;10781;50.928;4.440;2023-10-31T09:00:09;7.60;;;4.80;;
21245;SDS011;10781;50.928;4.440;2023-10-31T09:02:35;7.40;;;4.53;;
21245;SDS011;10781;50.928;4.440;2023-10-31T09:05:01;5.80;;;4.60;;
21245;SDS011;10781;50.928;4.440;2023-10-31T09:07:26;8.65;;;4.80;;
21245;SDS011;10781;50.928;4.440;2023-10-31T09:09:52;6.63;;;4.90;;
21245;SDS011;10781;50.928;4.440;2023-10-31T09:12:18;6.78;;;4.20;;
21245;SDS011;10781;50.928;4.440;2023-10-31T09:14:43;8.68;;;4.20;;
21245;SDS011;10781;50.928;4.440;2023-10-31T09:17:09;7.35;;;4.00;;
21245;SDS011;10781;50.928;4.440;2023-10-31T09:19:35;6.82;;;4.03;;
21245;SDS011;10781;50.928;4.440;2023-10-31T09:22:00;10.13;;;4.30;;
21245;SDS011;10781;50.928;4.440;2023-10-31T09:24:26;7.25;;;4.35;;
21245;SDS011;10781;50.928;4.440;2023-10-31T09:26:52;10.80;;;4.30;;
21245;SDS011;10781;50.928;4.440;2023-10-31T09:29:17;8.98;;;4.18;;
21245;SDS011;10781;50.928;4.440;2023-10-31T09:31:43;6.40;;;3.85;;
21245;SDS011;10781;50.928;4.440;2023-10-31T09:34:09;7.75;;;3.80;;
21245;SDS011;10781;50.928;4.440;2023-10-31T09:36:35;7.63;;;3.67;;
21245;SDS011;10781;50.928;4.440;2023-10-31T09:39:00;6.32;;;3.75;;
21245;SDS011;10781;50.928;4.440;2023-10-31T09:41:27;7.13;;;3.33;;
21245;SDS011;10781;50.928;4.440;2023-10-31T09:43:52;5.47;;;3.15;;
21245;SDS011;10781;50.928;4.440;2023-10-31T09:46:19;5.55;;;3.65;;
21245;SDS011;10781;50.928;4.440;2023-10-31T09:48:46;6.38;;;3.80;;
21245;SDS011;10781;50.928;4.440;2023-10-31T09:51:12;9.10;;;4.07;;
21245;SDS011;10781;50.928;4.440;2023-10-31T09:53:38;8.65;;;3.90;;
21245;SDS011;10781;50.928;4.440;2023-10-31T09:56:06;5.82;;;4.22;;
21245;SDS011;10781;50.928;4.440;2023-10-31T09:58:33;6.47;;;4.10;;
21245;SDS011;10781;50.928;4.440;2023-10-31T10:00:59;6.35;;;3.60;;
21245;SDS011;10781;50.928;4.440;2023-10-31T10:03:25;7.18;;;3.80;;
21245;SDS011;10781;50.928;4.440;2023-10-31T10:05:51;4.97;;;3.20;;
21245;SDS011;10781;50.928;4.440;2023-10-31T10:08:17;5.97;;;3.58;;
21245;SDS011;10781;50.928;4.440;2023-10-31T10:10:44;5.45;;;3.90;;
21245;SDS011;10781;50.928;4.440;2023-10-31T10:13:10;6.60;;;3.88;;
21245;SDS011;10781;50.928;4.440;2023-10-31T10:15:50;10.65;;;4.00;;
21245;SDS011;10781;50.928;4.440;2023-10-31T10:18:32;6.80;;;4.05;;
21245;SDS011;10781;50.928;4.440;2023-10-31T10:21:05;9.52;;;3.97;;
21245;SDS011;10781;50.928;4.440;2023-10-31T10:23:32;7.68;;;3.63;;
21245;SDS011;10781;50.928;4.440;2023-10-31T10:25:59;7.70;;;4.60;;
21245;SDS011;10781;50.928;4.440;2023-10-31T10:28:27;9.30;;;4.10;;
21245;SDS011;10781;50.928;4.440;2023-10-31T10:30:58;6.97;;;4.07;;
21245;SDS011;10781;50.928;4.440;2023-10-31T10:33:23;8.43;;;4.15;;
21245;SDS011;10781;50.928;4.440;2023-10-31T10:35:49;7.93;;;4.32;;
21245;SDS011;10781;50.928;4.440;2023-10-31T10:38:15;9.77;;;4.05;;
21245;SDS011;10781;50.928;4.440;2023-10-31T10:40:45;7.38;;;4.00;;
21245;SDS011;10781;50.928;4.440;2023-10-31T10:43:15;6.63;;;3.92;;
21245;SDS011;10781;50.928;4.440;2023-10-31T10:45:45;8.82;;;4.10;;
21245;SDS011;10781;50.928;4.440;2023-10-31T10:48:13;9.70;;;4.35;;
21245;SDS011;10781;50.928;4.440;2023-10-31T10:50:42;12.43;;;4.50;;
21245;SDS011;10781;50.928;4.440;2023-10-31T10:53:16;12.38;;;5.55;;
21245;SDS011;10781;50.928;4.440;2023-10-31T10:55:47;8.07;;;4.32;;
21245;SDS011;10781;50.928;4.440;2023-10-31T11:00:47;7.53;;;3.92;;
21245;SDS011;10781;50.928;4.440;2023-10-31T11:03:15;8.23;;;3.38;;
21245;SDS011;10781;50.928;4.440;2023-10-31T11:05:41;6.40;;;3.67;;
21245;SDS011;10781;50.928;4.440;2023-10-31T11:08:07;6.03;;;3.35;;
21245;SDS011;10781;50.928;4.440;2023-10-31T11:10:34;7.55;;;3.28;;
21245;SDS011;10781;50.928;4.440;2023-10-31T11:13:00;8.90;;;3.00;;
21245;SDS011;10781;50.928;4.440;2023-10-31T11:15:26;8.73;;;3.10;;
21245;SDS011;10781;50.928;4.440;2023-10-31T11:17:52;8.77;;;3.10;;
21245;SDS011;10781;50.928;4.440;2023-10-31T11:20:20;7.38;;;3.42;;
21245;SDS011;10781;50.928;4.440;2023-10-31T11:22:46;6.68;;;3.80;;
21245;SDS011;10781;50.928;4.440;2023-10-31T11:25:19;7.07;;;3.70;;
21245;SDS011;10781;50.928;4.440;2023-10-31T11:27:46;7.88;;;4.18;;
21245;SDS011;10781;50.928;4.440;2023-10-31T11:32:53;8.23;;;4.93;;
21245;SDS011;10781;50.928;4.440;2023-10-31T11:35:21;9.65;;;5.20;;
21245;SDS011;10781;50.928;4.440;2023-10-31T11:38:11;9.73;;;5.68;;
21245;SDS011;10781;50.928;4.440;2023-10-31T11:40:58;8.70;;;5.97;;
21245;SDS011;10781;50.928;4.440;2023-10-31T11:43:24;11.35;;;6.40;;
21245;SDS011;10781;50.928;4.440;2023-10-31T11:45:50;12.48;;;7.07;;
21245;SDS011;10781;50.928;4.440;2023-10-31T11:48:17;11.48;;;7.90;;
21245;SDS011;10781;50.928;4.440;2023-10-31T11:51:19;14.80;;;7.72;;
21245;SDS011;10781;50.928;4.440;2023-10-31T11:53:45;13.48;;;8.10;;
21245;SDS011;10781;50.928;4.440;2023-10-31T11:56:11;13.93;;;8.93;;
21245;SDS011;10781;50.928;4.440;2023-10-31T11:58:37;16.05;;;9.32;;
21245;SDS011;10781;50.928;4.440;2023-10-31T12:01:04;14.52;;;8.48;;
21245;SDS011;10781;50.928;4.440;2023-10-31T12:03:37;13.90;;;8.55;;
21245;SDS011;10781;50.928;4.440;2023-10-31T12:06:04;13.30;;;8.48;;
21245;SDS011;10781;50.928;4.440;2023-10-31T12:11:07;14.73;;;8.80;;
21245;SDS011;10781;50.928;4.440;2023-10-31T12:13:33;18.40;;;8.80;;
21245;SDS011;10781;50.928;4.440;2023-10-31T12:16:00;14.00;;;8.32;;
21245;SDS011;10781;50.928;4.440;2023-10-31T12:18:27;14.27;;;8.05;;
21245;SDS011;10781;50.928;4.440;2023-10-31T12:20:53;12.73;;;7.63;;
21245;SDS011;10781;50.928;4.440;2023-10-31T12:23:18;8.23;;;6.55;;
21245;SDS011;10781;50.928;4.440;2023-10-31T12:25:50;12.20;;;6.47;;
21245;SDS011;10781;50.928;4.440;2023-10-31T12:28:20;8.73;;;5.70;;
21245;SDS011;10781;50.928;4.440;2023-10-31T12:30:50;10.52;;;5.90;;
21245;SDS011;10781;50.928;4.440;2023-10-31T12:33:19;10.48;;;5.85;;
21245;SDS011;10781;50.928;4.440;2023-10-31T12:35:47;10.52;;;5.88;;
21245;SDS011;10781;50.928;4.440;2023-10-31T12:38:14;8.57;;;6.00;;
21245;SDS011;10781;50.928;4.440;2023-10-31T12:40:42;11.60;;;6.20;;
21245;SDS011;10781;50.928;4.440;2023-10-31T12:43:09;10.52;;;6.40;;
21245;SDS011;10781;50.928;4.440;2023-10-31T12:45:35;9.15;;;5.90;;
21245;SDS011;10781;50.928;4.440;2023-10-31T12:50:29;10.23;;;7.45;;
21245;SDS011;10781;50.928;4.440;2023-10-31T12:52:55;10.73;;;5.97;;
21245;SDS011;10781;50.928;4.440;2023-10-31T12:55:23;7.80;;;5.38;;
21245;SDS011;10781;50.928;4.440;2023-10-31T12:57:49;10.30;;;6.15;;
21245;SDS011;10781;50.928;4.440;2023-10-31T13:00:17;8.40;;;5.25;;
21245;SDS011;10781;50.928;4.440;2023-10-31T13:02:49;8.60;;;5.05;;
21245;SDS011;10781;50.928;4.440;2023-10-31T13:05:16;7.82;;;5.70;;
21245;SDS011;10781;50.928;4.440;2023-10-31T13:07:48;9.38;;;5.18;;
21245;SDS011;10781;50.928;4.440;2023-10-31T13:10:15;7.65;;;5.07;;
21245;SDS011;10781;50.928;4.440;2023-10-31T13:12:45;10.88;;;6.85;;
21245;SDS011;10781;50.928;4.440;2023-10-31T13:15:12;6.80;;;4.93;;
21245;SDS011;10781;50.928;4.440;2023-10-31T13:17:38;6.20;;;4.78;;
21245;SDS011;10781;50.928;4.440;2023-10-31T13:20:06;7.70;;;4.90;;
21245;SDS011;10781;50.928;4.440;2023-10-31T13:22:34;7.75;;;4.97;;
21245;SDS011;10781;50.928;4.440;2023-10-31T13:25:01;11.55;;;4.38;;
21245;SDS011;10781;50.928;4.440;2023-10-31T13:27:30;7.90;;;4.20;;
21245;SDS011;10781;50.928;4.440;2023-10-31T13:29:56;6.05;;;4.07;;
21245;SDS011;10781;50.928;4.440;2023-10-31T13:32:22;7.00;;;4.18;;
21245;SDS011;10781;50.928;4.440;2023-10-31T13:34:49;8.55;;;4.22;;
21245;SDS011;10781;50.928;4.440;2023-10-31T13:37:14;6.57;;;4.35;;
21245;SDS011;10781;50.928;4.440;2023-10-31T13:39:40;5.47;;;4.13;;
21245;SDS011;10781;50.928;4.440;2023-10-31T13:42:06;8.88;;;4.95;;
21245;SDS011;10781;50.928;4.440;2023-10-31T13:44:32;7.50;;;5.13;;
21245;SDS011;10781;50.928;4.440;2023-10-31T13:46:58;8.65;;;4.75;;
21245;SDS011;10781;50.928;4.440;2023-10-31T13:49:24;10.63;;;5.25;;
21245;SDS011;10781;50.928;4.440;2023-10-31T13:51:49;8.10;;;5.40;;
21245;SDS011;10781;50.928;4.440;2023-10-31T13:54:15;14.18;;;8.50;;
21245;SDS011;10781;50.928;4.440;2023-10-31T13:56:41;8.95;;;5.85;;
21245;SDS011;10781;50.928;4.440;2023-10-31T13:59:06;7.20;;;4.47;;
21245;SDS011;10781;50.928;4.440;2023-10-31T14:01:32;9.10;;;4.95;;
21245;SDS011;10781;50.928;4.440;2023-10-31T14:03:58;7.20;;;4.32;;
21245;SDS011;10781;50.928;4.440;2023-10-31T14:06:24;7.13;;;4.40;;
21245;SDS011;10781;50.928;4.440;2023-10-31T14:08:55;7.30;;;4.40;;
21245;SDS011;10781;50.928;4.440;2023-10-31T14:11:21;7.32;;;4.63;;
21245;SDS011;10781;50.928;4.440;2023-10-31T14:13:47;7.03;;;4.57;;
21245;SDS011;10781;50.928;4.440;2023-10-31T14:16:13;7.95;;;4.40;;
21245;SDS011;10781;50.928;4.440;2023-10-31T14:18:38;9.50;;;4.50;;
21245;SDS011;10781;50.928;4.440;2023-10-31T14:21:05;8.60;;;4.30;;
21245;SDS011;10781;50.928;4.440;2023-10-31T14:23:31;9.38;;;5.50;;
21245;SDS011;10781;50.928;4.440;2023-10-31T14:25:57;9.95;;;6.10;;
21245;SDS011;10781;50.928;4.440;2023-10-31T14:28:22;6.70;;;3.83;;
21245;SDS011;10781;50.928;4.440;2023-10-31T14:30:49;6.72;;;4.53;;
21245;SDS011;10781;50.928;4.440;2023-10-31T14:33:17;10.95;;;4.72;;
21245;SDS011;10781;50.928;4.440;2023-10-31T14:35:43;7.75;;;3.72;;
21245;SDS011;10781;50.928;4.440;2023-10-31T14:38:08;6.68;;;4.50;;
21245;SDS011;10781;50.928;4.440;2023-10-31T14:40:34;7.00;;;4.13;;
21245;SDS011;10781;50.928;4.440;2023-10-31T14:43:00;7.53;;;4.00;;